sensor_id;sensor_type;location;lat;lon;timestamp;pressure;altitude;pressure_sealevel;temperature
10058;BMP180;5068;51.286;7.518;2023-05-28T00:00:54;99811.00;;;12.60
10058;BMP180;5068;51.286;7.518;2023-05-28T00:02:47;99818.00;;;12.50
10058;BMP180;5068;51.286;7.518;2023-05-28T00:04:39;99808.00;;;12.50
10058;BMP180;5068;51.286;7.518;2023-05-28T00:06:31;99812.00;;;12.40
10058;BMP180;5068;51.286;7.518;2023-05-28T00:08:23;99809.00;;;12.40
10058;BMP180;5068;51.286;7.518;2023-05-28T00:09:57;99808.00;;;12.40
10058;BMP180;5068;51.286;7.518;2023-05-28T00:11:31;99802.00;;;12.40
10058;BMP180;5068;51.286;7.518;2023-05-28T00:13:03;99801.00;;;12.30
10058;BMP180;5068;51.286;7.518;2023-05-28T00:14:37;99797.00;;;12.30
10058;BMP180;5068;51.286;7.518;2023-05-28T00:16:10;99797.00;;;12.30
10058;BMP180;5068;51.286;7.518;2023-05-28T00:17:46;99797.00;;;12.30
10058;BMP180;5068;51.286;7.518;2023-05-28T00:19:18;99797.00;;;12.20
10058;BMP180;5068;51.286;7.518;2023-05-28T00:20:54;99792.00;;;12.20
10058;BMP180;5068;51.286;7.518;2023-05-28T00:22:27;99799.00;;;12.20
10058;BMP180;5068;51.286;7.518;2023-05-28T00:24:00;99799.00;;;12.20
10058;BMP180;5068;51.286;7.518;2023-05-28T00:25:34;99792.00;;;12.20
10058;BMP180;5068;51.286;7.518;2023-05-28T00:27:07;99787.00;;;12.10
10058;BMP180;5068;51.286;7.518;2023-05-28T00:28:41;99794.00;;;12.10
10058;BMP180;5068;51.286;7.518;2023-05-28T00:30:14;99788.00;;;12.10
10058;BMP180;5068;51.286;7.518;2023-05-28T00:31:49;99781.00;;;12.00
10058;BMP180;5068;51.286;7.518;2023-05-28T00:33:23;99783.00;;;12.00
10058;BMP180;5068;51.286;7.518;2023-05-28T00:34:57;99781.00;;;11.90
10058;BMP180;5068;51.286;7.518;2023-05-28T00:36:31;99782.00;;;11.90
10058;BMP180;5068;51.286;7.518;2023-05-28T00:38:04;99793.00;;;11.90
10058;BMP180;5068;51.286;7.518;2023-05-28T00:39:37;99784.00;;;11.80
10058;BMP180;5068;51.286;7.518;2023-05-28T00:41:11;99778.00;;;11.80
10058;BMP180;5068;51.286;7.518;2023-05-28T00:42:44;99779.00;;;11.70
10058;BMP180;5068;51.286;7.518;2023-05-28T00:44:18;99788.00;;;11.70
10058;BMP180;5068;51.286;7.518;2023-05-28T00:45:51;99786.00;;;11.70
10058;BMP180;5068;51.286;7.518;2023-05-28T00:47:26;99794.00;;;11.70
10058;BMP180;5068;51.286;7.518;2023-05-28T00:49:00;99784.00;;;11.70
10058;BMP180;5068;51.286;7.518;2023-05-28T00:50:35;99792.00;;;11.70
10058;BMP180;5068;51.286;7.518;2023-05-28T00:52:10;99788.00;;;11.60
10058;BMP180;5068;51.286;7.518;2023-05-28T00:53:43;99794.00;;;11.60
10058;BMP180;5068;51.286;7.518;2023-05-28T00:55:17;99796.00;;;11.60
10058;BMP180;5068;51.286;7.518;2023-05-28T00:56:53;99782.00;;;11.60
10058;BMP180;5068;51.286;7.518;2023-05-28T00:58:26;99794.00;;;11.50
10058;BMP180;5068;51.286;7.518;2023-05-28T01:00:00;99786.00;;;11.50
10058;BMP180;5068;51.286;7.518;2023-05-28T01:01:38;99786.00;;;11.50
10058;BMP180;5068;51.286;7.518;2023-05-28T01:03:13;99784.00;;;11.50
10058;BMP180;5068;51.286;7.518;2023-05-28T01:04:47;99774.00;;;11.50
10058;BMP180;5068;51.286;7.518;2023-05-28T01:06:23;99782.00;;;11.50
10058;BMP180;5068;51.286;7.518;2023-05-28T01:08:02;99774.00;;;11.50
10058;BMP180;5068;51.286;7.518;2023-05-28T01:09:36;99774.00;;;11.50
10058;BMP180;5068;51.286;7.518;2023-05-28T01:11:13;99777.00;;;11.40
10058;BMP180;5068;51.286;7.518;2023-05-28T01:12:49;99780.00;;;11.40
10058;BMP180;5068;51.286;7.518;2023-05-28T01:14:24;99769.00;;;11.40
10058;BMP180;5068;51.286;7.518;2023-05-28T01:15:58;99762.00;;;11.30
10058;BMP180;5068;51.286;7.518;2023-05-28T01:17:33;99770.00;;;11.30
10058;BMP180;5068;51.286;7.518;2023-05-28T01:19:09;99766.00;;;11.20
10058;BMP180;5068;51.286;7.518;2023-05-28T01:20:44;99757.00;;;11.20
10058;BMP180;5068;51.286;7.518;2023-05-28T01:22:21;99762.00;;;11.20
10058;BMP180;5068;51.286;7.518;2023-05-28T01:23:58;99771.00;;;11.10
10058;BMP180;5068;51.286;7.518;2023-05-28T01:25:33;99778.00;;;11.10
10058;BMP180;5068;51.286;7.518;2023-05-28T01:27:07;99776.00;;;11.10
10058;BMP180;5068;51.286;7.518;2023-05-28T01:28:43;99773.00;;;11.10
10058;BMP180;5068;51.286;7.518;2023-05-28T01:30:20;99760.00;;;11.10
10058;BMP180;5068;51.286;7.518;2023-05-28T01:31:53;99772.00;;;11.00
10058;BMP180;5068;51.286;7.518;2023-05-28T01:33:27;99779.00;;;11.00
10058;BMP180;5068;51.286;7.518;2023-05-28T01:34:59;99768.00;;;11.00
10058;BMP180;5068;51.286;7.518;2023-05-28T01:36:37;99780.00;;;10.90
10058;BMP180;5068;51.286;7.518;2023-05-28T01:38:15;99778.00;;;10.90
10058;BMP180;5068;51.286;7.518;2023-05-28T01:39:53;99774.00;;;10.90
10058;BMP180;5068;51.286;7.518;2023-05-28T01:41:30;99762.00;;;10.90
10058;BMP180;5068;51.286;7.518;2023-05-28T01:43:04;99776.00;;;10.90
10058;BMP180;5068;51.286;7.518;2023-05-28T01:44:39;99774.00;;;10.80
10058;BMP180;5068;51.286;7.518;2023-05-28T01:46:14;99770.00;;;10.80
10058;BMP180;5068;51.286;7.518;2023-05-28T01:47:49;99767.00;;;10.80
10058;BMP180;5068;51.286;7.518;2023-05-28T01:49:24;99766.00;;;10.80
10058;BMP180;5068;51.286;7.518;2023-05-28T01:50:57;99776.00;;;10.80
10058;BMP180;5068;51.286;7.518;2023-05-28T01:52:31;99771.00;;;10.80
10058;BMP180;5068;51.286;7.518;2023-05-28T01:54:04;99758.00;;;10.80
10058;BMP180;5068;51.286;7.518;2023-05-28T01:55:41;99755.00;;;10.80
10058;BMP180;5068;51.286;7.518;2023-05-28T01:57:15;99759.00;;;10.70
10058;BMP180;5068;51.286;7.518;2023-05-28T01:58:50;99759.00;;;10.70
10058;BMP180;5068;51.286;7.518;2023-05-28T02:00:23;99753.00;;;10.70
10058;BMP180;5068;51.286;7.518;2023-05-28T02:01:58;99759.00;;;10.60
10058;BMP180;5068;51.286;7.518;2023-05-28T02:03:31;99754.00;;;10.60
10058;BMP180;5068;51.286;7.518;2023-05-28T02:05:05;99756.00;;;10.60
10058;BMP180;5068;51.286;7.518;2023-05-28T02:06:39;99758.00;;;10.60
10058;BMP180;5068;51.286;7.518;2023-05-28T02:08:13;99753.00;;;10.50
10058;BMP180;5068;51.286;7.518;2023-05-28T02:09:46;99761.00;;;10.50
10058;BMP180;5068;51.286;7.518;2023-05-28T02:11:20;99751.00;;;10.50
10058;BMP180;5068;51.286;7.518;2023-05-28T02:12:57;99752.00;;;10.50
10058;BMP180;5068;51.286;7.518;2023-05-28T02:14:31;99754.00;;;10.50
10058;BMP180;5068;51.286;7.518;2023-05-28T02:16:05;99742.00;;;10.50
10058;BMP180;5068;51.286;7.518;2023-05-28T02:17:38;99749.00;;;10.50
10058;BMP180;5068;51.286;7.518;2023-05-28T02:19:12;99750.00;;;10.50
10058;BMP180;5068;51.286;7.518;2023-05-28T02:20:45;99745.00;;;10.50
10058;BMP180;5068;51.286;7.518;2023-05-28T02:22:20;99753.00;;;10.50
10058;BMP180;5068;51.286;7.518;2023-05-28T02:23:52;99748.00;;;10.40
10058;BMP180;5068;51.286;7.518;2023-05-28T02:25:27;99745.00;;;10.40
10058;BMP180;5068;51.286;7.518;2023-05-28T02:27:01;99741.00;;;10.30
10058;BMP180;5068;51.286;7.518;2023-05-28T02:28:36;99747.00;;;10.30
10058;BMP180;5068;51.286;7.518;2023-05-28T02:30:12;99745.00;;;10.30
10058;BMP180;5068;51.286;7.518;2023-05-28T02:31:46;99742.00;;;10.30
10058;BMP180;5068;51.286;7.518;2023-05-28T02:33:20;99750.00;;;10.30
10058;BMP180;5068;51.286;7.518;2023-05-28T02:34:52;99752.00;;;10.30
10058;BMP180;5068;51.286;7.518;2023-05-28T02:36:27;99753.00;;;10.30
10058;BMP180;5068;51.286;7.518;2023-05-28T02:38:02;99749.00;;;10.30
10058;BMP180;5068;51.286;7.518;2023-05-28T02:39:36;99739.00;;;10.20
10058;BMP180;5068;51.286;7.518;2023-05-28T02:41:10;99753.00;;;10.20
10058;BMP180;5068;51.286;7.518;2023-05-28T02:42:48;99747.00;;;10.20
10058;BMP180;5068;51.286;7.518;2023-05-28T02:44:21;99750.00;;;10.20
10058;BMP180;5068;51.286;7.518;2023-05-28T02:45:55;99752.00;;;10.20
10058;BMP180;5068;51.286;7.518;2023-05-28T02:47:29;99755.00;;;10.10
10058;BMP180;5068;51.286;7.518;2023-05-28T02:49:03;99751.00;;;10.10
10058;BMP180;5068;51.286;7.518;2023-05-28T02:50:36;99739.00;;;10.10
10058;BMP180;5068;51.286;7.518;2023-05-28T02:52:40;99750.00;;;10.10
10058;BMP180;5068;51.286;7.518;2023-05-28T02:54:13;99749.00;;;10.00
10058;BMP180;5068;51.286;7.518;2023-05-28T02:55:47;99758.00;;;10.00
10058;BMP180;5068;51.286;7.518;2023-05-28T02:57:21;99760.00;;;10.00
10058;BMP180;5068;51.286;7.518;2023-05-28T02:58:56;99753.00;;;10.00
10058;BMP180;5068;51.286;7.518;2023-05-28T03:00:29;99760.00;;;10.00
10058;BMP180;5068;51.286;7.518;2023-05-28T03:02:03;99755.00;;;10.00
10058;BMP180;5068;51.286;7.518;2023-05-28T03:03:36;99736.00;;;10.00
10058;BMP180;5068;51.286;7.518;2023-05-28T03:05:10;99758.00;;;10.00
10058;BMP180;5068;51.286;7.518;2023-05-28T03:06:43;99750.00;;;9.90
10058;BMP180;5068;51.286;7.518;2023-05-28T03:08:17;99754.00;;;9.90
10058;BMP180;5068;51.286;7.518;2023-05-28T03:09:50;99738.00;;;9.90
10058;BMP180;5068;51.286;7.518;2023-05-28T03:11:24;99752.00;;;9.90
10058;BMP180;5068;51.286;7.518;2023-05-28T03:12:58;99750.00;;;9.90
10058;BMP180;5068;51.286;7.518;2023-05-28T03:14:32;99754.00;;;9.90
10058;BMP180;5068;51.286;7.518;2023-05-28T03:16:06;99749.00;;;9.80
10058;BMP180;5068;51.286;7.518;2023-05-28T03:17:41;99755.00;;;9.80
10058;BMP180;5068;51.286;7.518;2023-05-28T03:19:15;99758.00;;;9.80
10058;BMP180;5068;51.286;7.518;2023-05-28T03:20:49;99754.00;;;9.80
10058;BMP180;5068;51.286;7.518;2023-05-28T03:22:24;99758.00;;;9.80
10058;BMP180;5068;51.286;7.518;2023-05-28T03:23:57;99765.00;;;9.70
10058;BMP180;5068;51.286;7.518;2023-05-28T03:25:34;99759.00;;;9.70
10058;BMP180;5068;51.286;7.518;2023-05-28T03:27:07;99754.00;;;9.70
10058;BMP180;5068;51.286;7.518;2023-05-28T03:28:42;99752.00;;;9.70
10058;BMP180;5068;51.286;7.518;2023-05-28T03:30:31;99761.00;;;9.60
10058;BMP180;5068;51.286;7.518;2023-05-28T03:32:05;99762.00;;;9.60
10058;BMP180;5068;51.286;7.518;2023-05-28T03:33:39;99748.00;;;9.60
10058;BMP180;5068;51.286;7.518;2023-05-28T03:35:12;99737.00;;;9.60
10058;BMP180;5068;51.286;7.518;2023-05-28T03:36:46;99760.00;;;9.60
10058;BMP180;5068;51.286;7.518;2023-05-28T03:38:19;99738.00;;;9.60
10058;BMP180;5068;51.286;7.518;2023-05-28T03:39:53;99737.00;;;9.60
10058;BMP180;5068;51.286;7.518;2023-05-28T03:41:26;99737.00;;;9.60
10058;BMP180;5068;51.286;7.518;2023-05-28T03:43:00;99744.00;;;9.60
10058;BMP180;5068;51.286;7.518;2023-05-28T03:44:34;99747.00;;;9.50
10058;BMP180;5068;51.286;7.518;2023-05-28T03:46:08;99759.00;;;9.50
10058;BMP180;5068;51.286;7.518;2023-05-28T03:47:43;99762.00;;;9.50
10058;BMP180;5068;51.286;7.518;2023-05-28T03:49:15;99756.00;;;9.50
10058;BMP180;5068;51.286;7.518;2023-05-28T03:50:49;99737.00;;;9.50
10058;BMP180;5068;51.286;7.518;2023-05-28T03:52:21;99751.00;;;9.50
10058;BMP180;5068;51.286;7.518;2023-05-28T03:53:58;99750.00;;;9.50
10058;BMP180;5068;51.286;7.518;2023-05-28T03:55:33;99751.00;;;9.50
10058;BMP180;5068;51.286;7.518;2023-05-28T03:57:08;99755.00;;;9.50
10058;BMP180;5068;51.286;7.518;2023-05-28T03:58:40;99756.00;;;9.50
10058;BMP180;5068;51.286;7.518;2023-05-28T04:00:14;99764.00;;;9.50
10058;BMP180;5068;51.286;7.518;2023-05-28T04:01:49;99743.00;;;9.50
10058;BMP180;5068;51.286;7.518;2023-05-28T04:03:23;99757.00;;;9.50
10058;BMP180;5068;51.286;7.518;2023-05-28T04:04:55;99750.00;;;9.40
10058;BMP180;5068;51.286;7.518;2023-05-28T04:06:29;99758.00;;;9.40
10058;BMP180;5068;51.286;7.518;2023-05-28T04:08:02;99755.00;;;9.40
10058;BMP180;5068;51.286;7.518;2023-05-28T04:09:36;99752.00;;;9.40
10058;BMP180;5068;51.286;7.518;2023-05-28T04:11:08;99752.00;;;9.30
10058;BMP180;5068;51.286;7.518;2023-05-28T04:12:42;99754.00;;;9.40
10058;BMP180;5068;51.286;7.518;2023-05-28T04:14:15;99749.00;;;9.40
10058;BMP180;5068;51.286;7.518;2023-05-28T04:15:49;99751.00;;;9.40
10058;BMP180;5068;51.286;7.518;2023-05-28T04:17:23;99733.00;;;9.40
10058;BMP180;5068;51.286;7.518;2023-05-28T04:18:58;99749.00;;;9.40
10058;BMP180;5068;51.286;7.518;2023-05-28T04:20:33;99738.00;;;9.30
10058;BMP180;5068;51.286;7.518;2023-05-28T04:22:08;99749.00;;;9.30
10058;BMP180;5068;51.286;7.518;2023-05-28T04:23:41;99737.00;;;9.30
10058;BMP180;5068;51.286;7.518;2023-05-28T04:25:14;99731.00;;;9.30
10058;BMP180;5068;51.286;7.518;2023-05-28T04:26:48;99739.00;;;9.30
10058;BMP180;5068;51.286;7.518;2023-05-28T04:28:20;99751.00;;;9.30
10058;BMP180;5068;51.286;7.518;2023-05-28T04:29:56;99754.00;;;9.30
10058;BMP180;5068;51.286;7.518;2023-05-28T04:31:29;99759.00;;;9.30
10058;BMP180;5068;51.286;7.518;2023-05-28T04:33:06;99756.00;;;9.40
10058;BMP180;5068;51.286;7.518;2023-05-28T04:34:42;99755.00;;;9.40
10058;BMP180;5068;51.286;7.518;2023-05-28T04:36:16;99759.00;;;9.40
10058;BMP180;5068;51.286;7.518;2023-05-28T04:37:49;99754.00;;;9.40
10058;BMP180;5068;51.286;7.518;2023-05-28T04:39:38;99751.00;;;9.40
10058;BMP180;5068;51.286;7.518;2023-05-28T04:41:12;99751.00;;;9.50
10058;BMP180;5068;51.286;7.518;2023-05-28T04:42:46;99754.00;;;9.50
10058;BMP180;5068;51.286;7.518;2023-05-28T04:44:21;99750.00;;;9.50
10058;BMP180;5068;51.286;7.518;2023-05-28T04:45:59;99754.00;;;9.50
10058;BMP180;5068;51.286;7.518;2023-05-28T04:47:36;99752.00;;;9.50
10058;BMP180;5068;51.286;7.518;2023-05-28T04:49:12;99756.00;;;9.60
10058;BMP180;5068;51.286;7.518;2023-05-28T04:50:44;99750.00;;;9.60
10058;BMP180;5068;51.286;7.518;2023-05-28T04:52:19;99757.00;;;9.60
10058;BMP180;5068;51.286;7.518;2023-05-28T04:53:52;99753.00;;;9.60
10058;BMP180;5068;51.286;7.518;2023-05-28T04:55:25;99736.00;;;9.70
10058;BMP180;5068;51.286;7.518;2023-05-28T04:56:58;99759.00;;;9.70
10058;BMP180;5068;51.286;7.518;2023-05-28T04:58:32;99760.00;;;9.70
10058;BMP180;5068;51.286;7.518;2023-05-28T05:00:07;99752.00;;;9.70
10058;BMP180;5068;51.286;7.518;2023-05-28T05:01:45;99747.00;;;9.70
10058;BMP180;5068;51.286;7.518;2023-05-28T05:03:18;99747.00;;;9.80
10058;BMP180;5068;51.286;7.518;2023-05-28T05:04:54;99764.00;;;9.70
10058;BMP180;5068;51.286;7.518;2023-05-28T05:06:29;99755.00;;;9.80
10058;BMP180;5068;51.286;7.518;2023-05-28T05:08:02;99742.00;;;9.80
10058;BMP180;5068;51.286;7.518;2023-05-28T05:09:37;99737.00;;;9.90
10058;BMP180;5068;51.286;7.518;2023-05-28T05:11:11;99756.00;;;9.90
10058;BMP180;5068;51.286;7.518;2023-05-28T05:12:44;99755.00;;;10.00
10058;BMP180;5068;51.286;7.518;2023-05-28T05:14:18;99750.00;;;10.00
10058;BMP180;5068;51.286;7.518;2023-05-28T05:15:53;99748.00;;;10.10
10058;BMP180;5068;51.286;7.518;2023-05-28T05:17:28;99760.00;;;10.10
10058;BMP180;5068;51.286;7.518;2023-05-28T05:19:01;99748.00;;;10.20
10058;BMP180;5068;51.286;7.518;2023-05-28T05:20:36;99754.00;;;10.20
10058;BMP180;5068;51.286;7.518;2023-05-28T05:22:10;99765.00;;;10.30
10058;BMP180;5068;51.286;7.518;2023-05-28T05:23:45;99772.00;;;10.30
10058;BMP180;5068;51.286;7.518;2023-05-28T05:25:19;99765.00;;;10.40
10058;BMP180;5068;51.286;7.518;2023-05-28T05:26:53;99760.00;;;10.50
10058;BMP180;5068;51.286;7.518;2023-05-28T05:28:46;99757.00;;;10.60
10058;BMP180;5068;51.286;7.518;2023-05-28T05:30:30;99762.00;;;10.60
10058;BMP180;5068;51.286;7.518;2023-05-28T05:32:05;99759.00;;;10.70
10058;BMP180;5068;51.286;7.518;2023-05-28T05:33:40;99765.00;;;10.80
10058;BMP180;5068;51.286;7.518;2023-05-28T05:35:31;99766.00;;;10.90
10058;BMP180;5068;51.286;7.518;2023-05-28T05:37:07;99766.00;;;10.90
10058;BMP180;5068;51.286;7.518;2023-05-28T05:39:07;99767.00;;;11.00
10058;BMP180;5068;51.286;7.518;2023-05-28T05:41:03;99769.00;;;11.10
10058;BMP180;5068;51.286;7.518;2023-05-28T05:42:56;99764.00;;;11.20
10058;BMP180;5068;51.286;7.518;2023-05-28T05:44:30;99764.00;;;11.30
10058;BMP180;5068;51.286;7.518;2023-05-28T05:46:04;99755.00;;;11.40
10058;BMP180;5068;51.286;7.518;2023-05-28T05:47:39;99770.00;;;11.40
10058;BMP180;5068;51.286;7.518;2023-05-28T05:49:13;99759.00;;;11.50
10058;BMP180;5068;51.286;7.518;2023-05-28T05:50:52;99767.00;;;11.60
10058;BMP180;5068;51.286;7.518;2023-05-28T05:52:29;99767.00;;;11.70
10058;BMP180;5068;51.286;7.518;2023-05-28T05:54:03;99768.00;;;11.70
10058;BMP180;5068;51.286;7.518;2023-05-28T05:55:37;99759.00;;;11.80
10058;BMP180;5068;51.286;7.518;2023-05-28T05:57:12;99761.00;;;11.90
10058;BMP180;5068;51.286;7.518;2023-05-28T05:58:46;99773.00;;;12.00
10058;BMP180;5068;51.286;7.518;2023-05-28T06:00:22;99748.00;;;12.10
10058;BMP180;5068;51.286;7.518;2023-05-28T06:01:59;99764.00;;;12.20
10058;BMP180;5068;51.286;7.518;2023-05-28T06:03:34;99769.00;;;12.20
10058;BMP180;5068;51.286;7.518;2023-05-28T06:05:28;99760.00;;;12.30
10058;BMP180;5068;51.286;7.518;2023-05-28T06:07:23;99765.00;;;12.40
10058;BMP180;5068;51.286;7.518;2023-05-28T06:09:16;99749.00;;;12.50
10058;BMP180;5068;51.286;7.518;2023-05-28T06:10:54;99759.00;;;12.60
10058;BMP180;5068;51.286;7.518;2023-05-28T06:12:27;99749.00;;;12.60
10058;BMP180;5068;51.286;7.518;2023-05-28T06:14:01;99747.00;;;12.70
10058;BMP180;5068;51.286;7.518;2023-05-28T06:15:34;99749.00;;;12.80
10058;BMP180;5068;51.286;7.518;2023-05-28T06:17:10;99750.00;;;12.90
10058;BMP180;5068;51.286;7.518;2023-05-28T06:18:44;99739.00;;;13.00
10058;BMP180;5068;51.286;7.518;2023-05-28T06:20:18;99744.00;;;13.10
10058;BMP180;5068;51.286;7.518;2023-05-28T06:21:52;99753.00;;;13.20
10058;BMP180;5068;51.286;7.518;2023-05-28T06:23:25;99756.00;;;13.20
10058;BMP180;5068;51.286;7.518;2023-05-28T06:25:00;99753.00;;;13.30
10058;BMP180;5068;51.286;7.518;2023-05-28T06:26:36;99753.00;;;13.40
10058;BMP180;5068;51.286;7.518;2023-05-28T06:28:09;99758.00;;;13.50
10058;BMP180;5068;51.286;7.518;2023-05-28T06:29:43;99751.00;;;13.60
10058;BMP180;5068;51.286;7.518;2023-05-28T06:31:18;99748.00;;;13.70
10058;BMP180;5068;51.286;7.518;2023-05-28T06:32:54;99748.00;;;13.80
10058;BMP180;5068;51.286;7.518;2023-05-28T06:34:28;99750.00;;;13.90
10058;BMP180;5068;51.286;7.518;2023-05-28T06:36:02;99754.00;;;14.00
10058;BMP180;5068;51.286;7.518;2023-05-28T06:37:35;99755.00;;;14.00
10058;BMP180;5068;51.286;7.518;2023-05-28T06:39:12;99753.00;;;14.10
10058;BMP180;5068;51.286;7.518;2023-05-28T06:40:50;99756.00;;;14.20
10058;BMP180;5068;51.286;7.518;2023-05-28T06:42:25;99745.00;;;14.30
10058;BMP180;5068;51.286;7.518;2023-05-28T06:44:13;99734.00;;;14.40
10058;BMP180;5068;51.286;7.518;2023-05-28T06:45:55;99747.00;;;14.50
10058;BMP180;5068;51.286;7.518;2023-05-28T06:47:29;99741.00;;;14.50
10058;BMP180;5068;51.286;7.518;2023-05-28T06:49:01;99743.00;;;14.60
10058;BMP180;5068;51.286;7.518;2023-05-28T06:50:36;99740.00;;;14.70
10058;BMP180;5068;51.286;7.518;2023-05-28T06:52:09;99734.00;;;14.80
10058;BMP180;5068;51.286;7.518;2023-05-28T06:53:43;99737.00;;;14.90
10058;BMP180;5068;51.286;7.518;2023-05-28T06:55:18;99744.00;;;14.90
10058;BMP180;5068;51.286;7.518;2023-05-28T06:57:17;99739.00;;;15.10
10058;BMP180;5068;51.286;7.518;2023-05-28T06:59:10;99750.00;;;15.10
10058;BMP180;5068;51.286;7.518;2023-05-28T07:00:52;99749.00;;;15.20
10058;BMP180;5068;51.286;7.518;2023-05-28T07:02:49;99746.00;;;15.30
10058;BMP180;5068;51.286;7.518;2023-05-28T07:04:43;99751.00;;;15.40
10058;BMP180;5068;51.286;7.518;2023-05-28T07:06:20;99748.00;;;15.50
10058;BMP180;5068;51.286;7.518;2023-05-28T07:07:53;99748.00;;;15.60
10058;BMP180;5068;51.286;7.518;2023-05-28T07:09:27;99750.00;;;15.70
10058;BMP180;5068;51.286;7.518;2023-05-28T07:11:01;99748.00;;;15.80
10058;BMP180;5068;51.286;7.518;2023-05-28T07:12:37;99747.00;;;15.90
10058;BMP180;5068;51.286;7.518;2023-05-28T07:14:11;99749.00;;;16.00
10058;BMP180;5068;51.286;7.518;2023-05-28T07:15:43;99744.00;;;16.10
10058;BMP180;5068;51.286;7.518;2023-05-28T07:17:16;99741.00;;;16.20
10058;BMP180;5068;51.286;7.518;2023-05-28T07:18:51;99752.00;;;16.30
10058;BMP180;5068;51.286;7.518;2023-05-28T07:20:24;99743.00;;;16.40
10058;BMP180;5068;51.286;7.518;2023-05-28T07:22:03;99741.00;;;16.50
10058;BMP180;5068;51.286;7.518;2023-05-28T07:23:37;99744.00;;;16.70
10058;BMP180;5068;51.286;7.518;2023-05-28T07:25:11;99744.00;;;16.80
10058;BMP180;5068;51.286;7.518;2023-05-28T07:26:44;99744.00;;;16.90
10058;BMP180;5068;51.286;7.518;2023-05-28T07:28:19;99750.00;;;17.00
10058;BMP180;5068;51.286;7.518;2023-05-28T07:29:53;99752.00;;;17.20
10058;BMP180;5068;51.286;7.518;2023-05-28T07:31:27;99753.00;;;17.30
10058;BMP180;5068;51.286;7.518;2023-05-28T07:33:04;99758.00;;;17.40
10058;BMP180;5068;51.286;7.518;2023-05-28T07:34:37;99754.00;;;17.60
10058;BMP180;5068;51.286;7.518;2023-05-28T07:36:12;99749.00;;;17.70
10058;BMP180;5068;51.286;7.518;2023-05-28T07:37:46;99755.00;;;17.90
10058;BMP180;5068;51.286;7.518;2023-05-28T07:39:19;99750.00;;;18.00
10058;BMP180;5068;51.286;7.518;2023-05-28T07:40:53;99750.00;;;18.10
10058;BMP180;5068;51.286;7.518;2023-05-28T07:42:47;99746.00;;;18.30
10058;BMP180;5068;51.286;7.518;2023-05-28T07:44:23;99752.00;;;18.40
10058;BMP180;5068;51.286;7.518;2023-05-28T07:45:57;99742.00;;;18.60
10058;BMP180;5068;51.286;7.518;2023-05-28T07:47:37;99742.00;;;18.70
10058;BMP180;5068;51.286;7.518;2023-05-28T07:49:18;99750.00;;;18.80
10058;BMP180;5068;51.286;7.518;2023-05-28T07:50:53;99752.00;;;19.00
10058;BMP180;5068;51.286;7.518;2023-05-28T07:52:40;99746.00;;;19.10
10058;BMP180;5068;51.286;7.518;2023-05-28T07:54:13;99754.00;;;19.30
10058;BMP180;5068;51.286;7.518;2023-05-28T07:55:47;99762.00;;;19.40
10058;BMP180;5068;51.286;7.518;2023-05-28T07:57:20;99764.00;;;19.50
10058;BMP180;5068;51.286;7.518;2023-05-28T07:58:55;99767.00;;;19.60
10058;BMP180;5068;51.286;7.518;2023-05-28T08:00:30;99768.00;;;19.70
10058;BMP180;5068;51.286;7.518;2023-05-28T08:02:06;99771.00;;;19.80
10058;BMP180;5068;51.286;7.518;2023-05-28T08:03:39;99766.00;;;19.90
10058;BMP180;5068;51.286;7.518;2023-05-28T08:05:12;99772.00;;;20.00
10058;BMP180;5068;51.286;7.518;2023-05-28T08:06:46;99770.00;;;20.10
10058;BMP180;5068;51.286;7.518;2023-05-28T08:08:27;99766.00;;;20.20
10058;BMP180;5068;51.286;7.518;2023-05-28T08:10:02;99768.00;;;20.30
10058;BMP180;5068;51.286;7.518;2023-05-28T08:11:37;99765.00;;;20.40
10058;BMP180;5068;51.286;7.518;2023-05-28T08:13:12;99774.00;;;20.50
10058;BMP180;5068;51.286;7.518;2023-05-28T08:14:46;99768.00;;;20.60
10058;BMP180;5068;51.286;7.518;2023-05-28T08:16:22;99763.00;;;20.70
10058;BMP180;5068;51.286;7.518;2023-05-28T08:18:25;99754.00;;;20.80
10058;BMP180;5068;51.286;7.518;2023-05-28T08:20:10;99759.00;;;20.90
10058;BMP180;5068;51.286;7.518;2023-05-28T08:21:51;99756.00;;;20.90
10058;BMP180;5068;51.286;7.518;2023-05-28T08:23:28;99754.00;;;21.00
10058;BMP180;5068;51.286;7.518;2023-05-28T08:25:09;99757.00;;;21.10
10058;BMP180;5068;51.286;7.518;2023-05-28T08:26:44;99758.00;;;21.20
10058;BMP180;5068;51.286;7.518;2023-05-28T08:28:22;99747.00;;;21.30
10058;BMP180;5068;51.286;7.518;2023-05-28T08:29:56;99753.00;;;21.40
10058;BMP180;5068;51.286;7.518;2023-05-28T08:31:32;99749.00;;;21.50
10058;BMP180;5068;51.286;7.518;2023-05-28T08:33:20;99755.00;;;21.60
10058;BMP180;5068;51.286;7.518;2023-05-28T08:34:55;99756.00;;;21.60
10058;BMP180;5068;51.286;7.518;2023-05-28T08:36:30;99747.00;;;21.70
10058;BMP180;5068;51.286;7.518;2023-05-28T08:38:06;99764.00;;;21.80
10058;BMP180;5068;51.286;7.518;2023-05-28T08:39:44;99750.00;;;21.90
10058;BMP180;5068;51.286;7.518;2023-05-28T08:41:19;99746.00;;;21.90
10058;BMP180;5068;51.286;7.518;2023-05-28T08:42:56;99758.00;;;22.00
10058;BMP180;5068;51.286;7.518;2023-05-28T08:44:29;99751.00;;;22.10
10058;BMP180;5068;51.286;7.518;2023-05-28T08:46:04;99740.00;;;22.20
10058;BMP180;5068;51.286;7.518;2023-05-28T08:48:00;99748.00;;;22.30
10058;BMP180;5068;51.286;7.518;2023-05-28T08:49:43;99756.00;;;22.30
10058;BMP180;5068;51.286;7.518;2023-05-28T08:51:20;99743.00;;;22.40
10058;BMP180;5068;51.286;7.518;2023-05-28T08:53:01;99748.00;;;22.50
10058;BMP180;5068;51.286;7.518;2023-05-28T08:54:38;99742.00;;;22.50
10058;BMP180;5068;51.286;7.518;2023-05-28T08:56:16;99743.00;;;22.60
10058;BMP180;5068;51.286;7.518;2023-05-28T08:58:01;99750.00;;;22.70
10058;BMP180;5068;51.286;7.518;2023-05-28T09:00:10;99739.00;;;22.70
10058;BMP180;5068;51.286;7.518;2023-05-28T09:02:27;99745.00;;;22.80
10058;BMP180;5068;51.286;7.518;2023-05-28T09:04:05;99749.00;;;22.90
10058;BMP180;5068;51.286;7.518;2023-05-28T09:05:48;99746.00;;;22.90
10058;BMP180;5068;51.286;7.518;2023-05-28T09:07:24;99745.00;;;23.00
10058;BMP180;5068;51.286;7.518;2023-05-28T09:09:02;99736.00;;;23.10
10058;BMP180;5068;51.286;7.518;2023-05-28T09:10:47;99746.00;;;23.20
10058;BMP180;5068;51.286;7.518;2023-05-28T09:12:22;99748.00;;;23.20
10058;BMP180;5068;51.286;7.518;2023-05-28T09:14:09;99749.00;;;23.20
10058;BMP180;5068;51.286;7.518;2023-05-28T09:15:50;99748.00;;;23.30
10058;BMP180;5068;51.286;7.518;2023-05-28T09:17:38;99748.00;;;23.40
10058;BMP180;5068;51.286;7.518;2023-05-28T09:19:30;99742.00;;;23.40
10058;BMP180;5068;51.286;7.518;2023-05-28T09:21:07;99745.00;;;23.50
10058;BMP180;5068;51.286;7.518;2023-05-28T09:22:56;99743.00;;;23.50
10058;BMP180;5068;51.286;7.518;2023-05-28T09:24:48;99726.00;;;23.60
10058;BMP180;5068;51.286;7.518;2023-05-28T09:26:35;99741.00;;;23.60